Time;durP1;ratioP1;P1;durP2;ratioP2;P2;SDS_P1;SDS_P2;PMS_P1;PMS_P2;Temp;Humidity;BMP_temperature;BMP_pressure;BME280_temperature;BME280_humidity;BME280_pressure;Samples;Min_cycle;Max_cycle;Signal;HPM_P1;HPM_P2
2023/09/04 00:00:35;;;;;;;7.03;6.38;;;;;;;;;;5069090;28;20099;-62
2023/09/04 00:03:00;;;;;;;9.32;8.52;;;;;;;;;;5070718;28;20095;-63
2023/09/04 00:05:25;;;;;;;6.60;6.00;;;;;;;;;;5068837;28;20028;-62
2023/09/04 00:07:50;;;;;;;7.10;6.47;;;;;;;;;;5070607;28;20714;-63
2023/09/04 00:10:16;;;;;;;7.97;7.10;;;;;;;;;;5070584;28;20021;-63
2023/09/04 00:12:41;;;;;;;6.57;5.93;;;;;;;;;;5066615;28;20081;-63
2023/09/04 00:15:06;;;;;;;8.33;7.53;;;;;;;;;;5070640;28;20508;-63
2023/09/04 00:17:32;;;;;;;9.43;8.55;;;;;;;;;;5068784;28;20487;-63
2023/09/04 00:19:57;;;;;;;9.93;8.88;;;;;;;;;;5070071;28;20017;-63
2023/09/04 00:22:22;;;;;;;11.82;10.45;;;;;;;;;;5068749;28;20408;-63
2023/09/04 00:24:47;;;;;;;11.00;9.97;;;;;;;;;;5070370;28;20027;-63
2023/09/04 00:27:13;;;;;;;19.20;11.18;;;;;;;;;;5068724;28;20439;-63
2023/09/04 00:29:38;;;;;;;14.40;11.97;;;;;;;;;;5069940;28;20016;-63
2023/09/04 00:32:03;;;;;;;13.67;12.27;;;;;;;;;;5068548;28;20447;-63
2023/09/04 00:34:28;;;;;;;15.02;13.43;;;;;;;;;;5069987;28;20425;-63
2023/09/04 00:36:53;;;;;;;11.85;10.38;;;;;;;;;;5050289;28;20042;-63
2023/09/04 00:39:19;;;;;;;14.00;12.50;;;;;;;;;;5050278;28;20132;-62
2023/09/04 00:41:45;;;;;;;12.98;11.73;;;;;;;;;;5048379;28;20041;-62
2023/09/04 00:44:10;;;;;;;14.50;12.63;;;;;;;;;;5050041;28;20027;-63
2023/09/04 00:46:35;;;;;;;15.53;13.47;;;;;;;;;;5048608;28;20119;-62
2023/09/04 00:49:01;;;;;;;15.47;13.77;;;;;;;;;;5050101;28;20013;-63
2023/09/04 00:51:26;;;;;;;15.35;13.77;;;;;;;;;;5048322;28;20493;-63
2023/09/04 00:53:51;;;;;;;15.70;14.07;;;;;;;;;;5050289;28;20107;-66
2023/09/04 00:56:17;;;;;;;15.80;14.10;;;;;;;;;;5048843;28;20029;-63
2023/09/04 00:58:42;;;;;;;15.15;13.20;;;;;;;;;;5049450;28;20032;-65
2023/09/04 01:01:08;;;;;;;16.70;13.90;;;;;;;;;;5048503;28;20480;-65
2023/09/04 01:03:33;;;;;;;14.15;12.15;;;;;;;;;;5049906;28;21078;-65
2023/09/04 01:05:58;;;;;;;11.75;10.57;;;;;;;;;;5048617;28;20033;-65
2023/09/04 01:08:24;;;;;;;13.17;11.73;;;;;;;;;;5049821;28;20101;-65
2023/09/04 01:11:09;;;;;;;13.45;12.07;;;;;;;;;;5048754;28;20465;-64
2023/09/04 01:13:38;;;;;;;14.40;12.98;;;;;;;;;;5049471;28;20108;-64
2023/09/04 01:16:04;;;;;;;16.92;13.40;;;;;;;;;;5048602;28;20049;-64
2023/09/04 01:18:29;;;;;;;13.80;11.65;;;;;;;;;;5049755;28;20020;-64
2023/09/04 01:21:04;;;;;;;14.02;12.85;;;;;;;;;;5048144;28;20025;-64
2023/09/04 01:23:29;;;;;;;14.82;13.38;;;;;;;;;;5049067;28;20111;-64
2023/09/04 01:25:59;;;;;;;13.77;12.27;;;;;;;;;;5052473;28;20120;-64
2023/09/04 01:28:28;;;;;;;13.07;11.68;;;;;;;;;;5053135;28;20040;-63
2023/09/04 01:31:03;;;;;;;13.75;12.32;;;;;;;;;;5053425;28;20036;-63
2023/09/04 01:33:39;;;;;;;13.82;12.30;;;;;;;;;;5053585;28;20025;-63
2023/09/04 01:36:07;;;;;;;13.38;12.07;;;;;;;;;;5051989;28;20391;-64
2023/09/04 01:38:33;;;;;;;12.63;11.30;;;;;;;;;;5053250;28;20045;-63
2023/09/04 01:40:58;;;;;;;13.15;11.85;;;;;;;;;;5051892;28;20365;-63
2023/09/04 01:43:23;;;;;;;12.15;11.00;;;;;;;;;;5053221;28;20342;-63
2023/09/04 01:45:48;;;;;;;12.10;9.98;;;;;;;;;;5052130;28;20048;-63
2023/09/04 01:48:13;;;;;;;11.80;10.60;;;;;;;;;;5053502;28;20017;-63
2023/09/04 01:50:39;;;;;;;12.02;10.63;;;;;;;;;;5051349;28;20466;-63
2023/09/04 01:53:04;;;;;;;12.40;11.13;;;;;;;;;;5053252;28;20413;-63
2023/09/04 01:55:30;;;;;;;12.93;11.63;;;;;;;;;;5051987;28;20017;-63
2023/09/04 01:57:55;;;;;;;11.13;10.02;;;;;;;;;;5053065;28;20048;-63
2023/09/04 02:00:20;;;;;;;16.17;12.55;;;;;;;;;;5051787;28;20025;-62
2023/09/04 02:02:46;;;;;;;12.38;11.07;;;;;;;;;;5052674;28;20017;-63
2023/09/04 02:05:11;;;;;;;14.23;11.18;;;;;;;;;;5052712;28;20488;-63
2023/09/04 02:07:36;;;;;;;12.60;11.30;;;;;;;;;;5050048;28;20059;-64
2023/09/04 02:10:01;;;;;;;13.83;12.53;;;;;;;;;;5053063;28;20043;-64
2023/09/04 02:12:26;;;;;;;13.35;12.05;;;;;;;;;;5051081;28;20056;-64
2023/09/04 02:14:52;;;;;;;11.05;10.05;;;;;;;;;;5052647;28;20017;-64
2023/09/04 02:17:17;;;;;;;11.90;10.18;;;;;;;;;;5051489;28;20608;-62
2023/09/04 02:19:42;;;;;;;13.77;12.30;;;;;;;;;;5052197;28;20082;-63
2023/09/04 02:22:07;;;;;;;14.13;12.77;;;;;;;;;;5051101;28;20456;-62
2023/09/04 02:24:33;;;;;;;19.10;12.30;;;;;;;;;;5052538;28;20775;-62
2023/09/04 02:26:58;;;;;;;16.17;14.07;;;;;;;;;;5050437;28;20404;-63
2023/09/04 02:29:23;;;;;;;14.93;13.32;;;;;;;;;;5070552;28;20069;-62
2023/09/04 02:31:49;;;;;;;14.15;12.70;;;;;;;;;;5071075;28;20024;-62
2023/09/04 02:34:14;;;;;;;11.23;10.13;;;;;;;;;;5071767;28;20465;-62
2023/09/04 02:36:39;;;;;;;14.65;13.13;;;;;;;;;;5069338;28;20082;-62
2023/09/04 02:39:05;;;;;;;13.07;11.75;;;;;;;;;;5072112;28;20049;-62
2023/09/04 02:41:30;;;;;;;14.85;12.80;;;;;;;;;;5070334;28;20048;-62
2023/09/04 02:43:55;;;;;;;17.87;14.63;;;;;;;;;;5072152;28;20434;-62
2023/09/04 02:46:20;;;;;;;16.47;14.77;;;;;;;;;;5070908;28;20029;-63
2023/09/04 02:48:46;;;;;;;16.73;14.47;;;;;;;;;;5070128;28;20021;-63
2023/09/04 02:51:11;;;;;;;15.32;13.75;;;;;;;;;;5070925;28;20028;-63
2023/09/04 02:53:36;;;;;;;10.47;8.57;;;;;;;;;;5071134;28;20521;-63
2023/09/04 02:56:01;;;;;;;11.93;10.83;;;;;;;;;;5068525;28;20451;-62
2023/09/04 02:58:27;;;;;;;12.70;11.30;;;;;;;;;;5071814;28;20446;-63
2023/09/04 03:00:52;;;;;;;9.15;8.20;;;;;;;;;;5070497;28;20090;-62
2023/09/04 03:03:19;;;;;;;10.00;9.13;;;;;;;;;;5071568;28;20099;-62
2023/09/04 03:05:44;;;;;;;9.38;8.48;;;;;;;;;;5067763;28;20589;-62
2023/09/04 03:08:09;;;;;;;10.30;8.00;;;;;;;;;;5071693;28;20052;-62
2023/09/04 03:10:34;;;;;;;11.55;10.38;;;;;;;;;;5069763;28;20062;-60
2023/09/04 03:13:00;;;;;;;10.13;8.68;;;;;;;;;;5071620;28;20023;-63
2023/09/04 03:15:25;;;;;;;13.00;11.65;;;;;;;;;;5069608;28;20028;-63
2023/09/04 03:17:50;;;;;;;24.10;15.67;;;;;;;;;;5071099;28;20056;-63
2023/09/04 03:20:19;;;;;;;14.07;12.55;;;;;;;;;;5071608;28;20501;-63
2023/09/04 03:22:45;;;;;;;16.02;14.20;;;;;;;;;;5049481;28;20041;-63
2023/09/04 03:25:10;;;;;;;15.00;13.48;;;;;;;;;;5050929;28;20028;-63
2023/09/04 03:27:35;;;;;;;15.80;13.60;;;;;;;;;;5068158;28;20135;-62
2023/09/04 03:30:00;;;;;;;17.15;13.63;;;;;;;;;;5071304;28;20025;-62
2023/09/04 03:32:25;;;;;;;16.85;15.10;;;;;;;;;;5069111;28;20036;-62
2023/09/04 03:34:51;;;;;;;14.35;12.93;;;;;;;;;;5071259;28;20016;-63
2023/09/04 03:37:16;;;;;;;72.13;10.32;;;;;;;;;;5068413;28;20032;-62
2023/09/04 03:39:41;;;;;;;11.83;10.70;;;;;;;;;;5070581;28;20534;-62
2023/09/04 03:42:07;;;;;;;11.13;9.80;;;;;;;;;;5069344;28;20040;-62
2023/09/04 03:44:32;;;;;;;12.57;11.27;;;;;;;;;;5070696;28;20411;-62
2023/09/04 03:46:58;;;;;;;10.10;8.18;;;;;;;;;;5068708;28;20033;-62
2023/09/04 03:49:23;;;;;;;11.90;10.65;;;;;;;;;;5070528;28;20472;-62
2023/09/04 03:51:48;;;;;;;13.43;11.93;;;;;;;;;;5068915;28;20368;-63
2023/09/04 03:54:13;;;;;;;14.20;12.70;;;;;;;;;;5070559;28;20020;-64
2023/09/04 03:56:38;;;;;;;16.10;14.33;;;;;;;;;;5068757;28;20086;-62
2023/09/04 03:59:04;;;;;;;16.13;13.70;;;;;;;;;;5070974;28;20107;-62
2023/09/04 04:01:31;;;;;;;16.65;14.88;;;;;;;;;;5069129;28;20481;-62
2023/09/04 04:03:56;;;;;;;15.30;13.68;;;;;;;;;;5070319;28;20051;-62
2023/09/04 04:06:22;;;;;;;16.20;14.27;;;;;;;;;;5069325;28;20132;-62
2023/09/04 04:08:48;;;;;;;23.02;20.25;;;;;;;;;;5070364;28;20481;-62
2023/09/04 04:11:13;;;;;;;17.88;15.50;;;;;;;;;;5054712;28;20153;-63
2023/09/04 04:13:38;;;;;;;27.95;19.58;;;;;;;;;;5049349;28;20040;-62
2023/09/04 04:16:04;;;;;;;15.68;14.00;;;;;;;;;;5048941;28;20048;-62
2023/09/04 04:18:30;;;;;;;17.27;15.55;;;;;;;;;;5069562;28;20051;-63
2023/09/04 04:20:55;;;;;;;42.17;9.32;;;;;;;;;;5053024;28;20067;-62
2023/09/04 04:23:20;;;;;;;13.13;9.15;;;;;;;;;;5050215;28;20052;-63
2023/09/04 04:25:47;;;;;;;10.20;9.15;;;;;;;;;;5048426;28;20040;-63
2023/09/04 04:28:12;;;;;;;11.13;9.95;;;;;;;;;;5050352;28;20017;-62
2023/09/04 04:30:38;;;;;;;15.90;11.90;;;;;;;;;;5049525;28;20045;-64
2023/09/04 04:33:03;;;;;;;14.93;12.50;;;;;;;;;;5061445;28;20073;-64
2023/09/04 04:35:28;;;;;;;14.20;12.50;;;;;;;;;;5068549;28;20631;-62
2023/09/04 04:37:53;;;;;;;13.90;12.15;;;;;;;;;;5069634;28;20976;-61
2023/09/04 04:40:19;;;;;;;18.67;16.27;;;;;;;;;;5068568;28;20035;-62
2023/09/04 04:42:45;;;;;;;16.15;14.45;;;;;;;;;;5070312;28;20040;-63
2023/09/04 04:45:10;;;;;;;14.85;13.35;;;;;;;;;;5070202;28;20017;-63
2023/09/04 04:47:35;;;;;;;25.77;15.70;;;;;;;;;;5068318;28;20028;-62
2023/09/04 04:50:01;;;;;;;18.25;16.23;;;;;;;;;;5070303;28;20021;-63
2023/09/04 04:52:26;;;;;;;18.90;16.65;;;;;;;;;;5068548;28;20047;-63
2023/09/04 04:54:51;;;;;;;18.80;15.45;;;;;;;;;;5069863;28;20024;-63
2023/09/04 04:57:16;;;;;;;15.98;13.95;;;;;;;;;;5069119;28;20052;-63
2023/09/04 04:59:41;;;;;;;14.73;13.23;;;;;;;;;;5074147;28;20464;-63
2023/09/04 05:02:06;;;;;;;20.63;17.83;;;;;;;;;;5072596;28;20120;-63
2023/09/04 05:04:33;;;;;;;21.80;18.27;;;;;;;;;;5073876;28;20016;-63
2023/09/04 05:06:58;;;;;;;31.33;23.02;;;;;;;;;;5072616;28;20056;-62
2023/09/04 05:09:23;;;;;;;32.53;26.23;;;;;;;;;;5073612;28;20511;-62
2023/09/04 05:11:48;;;;;;;29.85;23.02;;;;;;;;;;5072683;28;20443;-63
2023/09/04 05:14:14;;;;;;;30.60;23.92;;;;;;;;;;5072607;28;20514;-62
2023/09/04 05:16:39;;;;;;;28.45;22.52;;;;;;;;;;5071951;28;20029;-63
2023/09/04 05:19:04;;;;;;;31.17;23.73;;;;;;;;;;5073849;28;20056;-62
2023/09/04 05:21:29;;;;;;;27.13;22.35;;;;;;;;;;5072176;28;20084;-63
2023/09/04 05:23:55;;;;;;;32.43;19.90;;;;;;;;;;5073619;28;20062;-63
2023/09/04 05:26:20;;;;;;;26.33;20.08;;;;;;;;;;5071039;28;20395;-62
2023/09/04 05:28:45;;;;;;;28.17;21.13;;;;;;;;;;5073303;28;20016;-64
2023/09/04 05:31:11;;;;;;;28.48;23.15;;;;;;;;;;5071594;28;20432;-62
2023/09/04 05:33:36;;;;;;;29.45;25.08;;;;;;;;;;5073373;28;20017;-63
2023/09/04 05:36:01;;;;;;;30.17;25.87;;;;;;;;;;5057576;28;20091;-65
2023/09/04 05:38:27;;;;;;;30.42;25.15;;;;;;;;;;5052630;28;20094;-64
2023/09/04 05:40:55;;;;;;;32.15;25.00;;;;;;;;;;5051660;28;20033;-66
2023/09/04 05:43:21;;;;;;;31.00;26.13;;;;;;;;;;5053221;28;20020;-60
2023/09/04 05:45:46;;;;;;;31.92;26.45;;;;;;;;;;5051342;28;20550;-62
2023/09/04 05:48:11;;;;;;;32.23;24.83;;;;;;;;;;5053359;28;20027;-61
2023/09/04 05:50:36;;;;;;;33.95;26.33;;;;;;;;;;5051494;28;20037;-62
2023/09/04 05:53:02;;;;;;;29.70;25.83;;;;;;;;;;5052891;28;20360;-61
2023/09/04 05:55:27;;;;;;;26.90;23.35;;;;;;;;;;5051580;28;20029;-61
2023/09/04 05:57:52;;;;;;;30.52;23.92;;;;;;;;;;5053082;28;20043;-61
2023/09/04 06:00:17;;;;;;;25.20;22.20;;;;;;;;;;5050229;28;20078;-61
2023/09/04 06:02:42;;;;;;;27.50;22.60;;;;;;;;;;5052667;28;20489;-61
2023/09/04 06:05:08;;;;;;;27.73;22.60;;;;;;;;;;5053075;28;20973;-62
2023/09/04 06:07:33;;;;;;;25.80;23.27;;;;;;;;;;5051456;28;20463;-60
2023/09/04 06:09:59;;;;;;;26.88;20.80;;;;;;;;;;5052019;28;20380;-60
2023/09/04 06:12:24;;;;;;;24.70;20.08;;;;;;;;;;5067774;28;20600;-59
2023/09/04 06:14:49;;;;;;;26.15;21.40;;;;;;;;;;5072953;28;20028;-60
2023/09/04 06:17:14;;;;;;;21.55;18.65;;;;;;;;;;5071061;28;20032;-61
2023/09/04 06:19:39;;;;;;;23.17;19.40;;;;;;;;;;5072610;28;20414;-60
2023/09/04 06:22:05;;;;;;;24.73;18.80;;;;;;;;;;5071013;28;20040;-60
2023/09/04 06:24:30;;;;;;;21.67;19.40;;;;;;;;;;5072285;28;20037;-60
2023/09/04 06:26:55;;;;;;;18.77;16.20;;;;;;;;;;5071262;28;20111;-60
2023/09/04 06:29:20;;;;;;;21.38;18.80;;;;;;;;;;5072924;28;20024;-60
2023/09/04 06:31:45;;;;;;;21.70;19.40;;;;;;;;;;5069191;28;20028;-61
2023/09/04 06:34:11;;;;;;;23.67;19.08;;;;;;;;;;5072412;28;20016;-60
2023/09/04 06:36:36;;;;;;;20.63;18.50;;;;;;;;;;5067869;28;20067;-60
2023/09/04 06:39:03;;;;;;;18.35;15.55;;;;;;;;;;5070711;28;20063;-60
2023/09/04 06:41:28;;;;;;;23.45;16.42;;;;;;;;;;5058641;28;20044;-60
2023/09/04 06:43:54;;;;;;;21.15;17.40;;;;;;;;;;5052280;28;20863;-60
2023/09/04 06:46:19;;;;;;;16.88;15.05;;;;;;;;;;5050343;28;20060;-60
2023/09/04 06:48:44;;;;;;;20.02;17.92;;;;;;;;;;5051623;28;20071;-60
2023/09/04 06:51:09;;;;;;;15.55;13.93;;;;;;;;;;5050842;28;20229;-60
2023/09/04 06:53:35;;;;;;;16.58;13.93;;;;;;;;;;5052898;28;20033;-60
2023/09/04 06:56:00;;;;;;;15.23;13.63;;;;;;;;;;5070460;28;20499;-60
2023/09/04 06:58:26;;;;;;;15.50;13.90;;;;;;;;;;5071749;28;20016;-60
2023/09/04 07:00:54;;;;;;;16.65;14.75;;;;;;;;;;5069886;28;20056;-60
2023/09/04 07:03:19;;;;;;;15.95;12.95;;;;;;;;;;5071811;28;20071;-60
2023/09/04 07:05:44;;;;;;;13.60;12.20;;;;;;;;;;5070111;28;20514;-60
2023/09/04 07:08:10;;;;;;;14.30;12.90;;;;;;;;;;5071359;28;20012;-60
2023/09/04 07:10:35;;;;;;;13.32;12.13;;;;;;;;;;5069717;28;20449;-60
2023/09/04 07:13:00;;;;;;;12.60;11.40;;;;;;;;;;5071892;28;20020;-60
2023/09/04 07:15:26;;;;;;;14.27;11.93;;;;;;;;;;5069544;28;20360;-60
2023/09/04 07:17:51;;;;;;;11.27;10.07;;;;;;;;;;5070491;28;20054;-60
2023/09/04 07:20:16;;;;;;;13.90;9.95;;;;;;;;;;5068406;28;20052;-63
2023/09/04 07:22:41;;;;;;;10.70;9.77;;;;;;;;;;5069935;28;20017;-60
2023/09/04 07:25:06;;;;;;;9.50;8.47;;;;;;;;;;5070170;28;20563;-60
2023/09/04 07:27:32;;;;;;;8.80;7.95;;;;;;;;;;5069493;28;20037;-60
2023/09/04 07:29:58;;;;;;;18.98;8.73;;;;;;;;;;5071074;28;20047;-60
2023/09/04 07:32:25;;;;;;;8.95;7.65;;;;;;;;;;5069833;28;20040;-60
2023/09/04 07:34:55;;;;;;;13.68;8.43;;;;;;;;;;5069892;28;20418;-60
2023/09/04 07:37:20;;;;;;;8.65;6.20;;;;;;;;;;5069642;28;20036;-60
2023/09/04 07:39:45;;;;;;;7.73;7.03;;;;;;;;;;5070674;28;20403;-59
2023/09/04 07:42:12;;;;;;;19.08;6.13;;;;;;;;;;5069522;28;20131;-60
2023/09/04 07:44:37;;;;;;;7.28;6.47;;;;;;;;;;5070684;28;20016;-60
2023/09/04 07:47:02;;;;;;;7.50;5.38;;;;;;;;;;5068239;28;20055;-60
2023/09/04 07:49:27;;;;;;;6.22;5.63;;;;;;;;;;5070821;28;20073;-60
2023/09/04 07:51:53;;;;;;;6.10;5.57;;;;;;;;;;5069109;28;20518;-60
2023/09/04 07:54:19;;;;;;;7.72;5.90;;;;;;;;;;5071134;28;20017;-60
2023/09/04 07:56:44;;;;;;;5.55;4.97;;;;;;;;;;5069207;28;20040;-60
2023/09/04 07:59:09;;;;;;;5.67;5.17;;;;;;;;;;5070576;28;20021;-60
2023/09/04 08:01:34;;;;;;;6.40;5.67;;;;;;;;;;5069073;28;20461;-60
2023/09/04 08:04:01;;;;;;;8.40;6.87;;;;;;;;;;5069531;28;20443;-60
2023/09/04 08:06:26;;;;;;;5.68;5.18;;;;;;;;;;5068893;28;20038;-62
2023/09/04 08:08:52;;;;;;;5.87;5.37;;;;;;;;;;5070774;28;20036;-60
2023/09/04 08:11:17;;;;;;;5.97;5.25;;;;;;;;;;5069254;28;20402;-60
2023/09/04 08:13:42;;;;;;;19.13;6.50;;;;;;;;;;5070444;28;20359;-60
2023/09/04 08:16:07;;;;;;;6.33;5.73;;;;;;;;;;5069300;28;20111;-61
2023/09/04 08:18:32;;;;;;;6.93;4.75;;;;;;;;;;5070298;28;20013;-61
2023/09/04 08:20:59;;;;;;;10.13;5.63;;;;;;;;;;5069000;28;20395;-61
2023/09/04 08:23:24;;;;;;;6.57;4.53;;;;;;;;;;5070504;28;20031;-61
2023/09/04 08:25:56;;;;;;;5.78;4.97;;;;;;;;;;5068928;28;20392;-61
2023/09/04 08:28:21;;;;;;;8.35;5.43;;;;;;;;;;5055875;28;20027;-61
2023/09/04 08:30:46;;;;;;;5.55;4.82;;;;;;;;;;5048405;28;20037;-60
2023/09/04 08:33:11;;;;;;;7.27;5.47;;;;;;;;;;5055604;28;20032;-61
2023/09/04 08:35:36;;;;;;;6.00;5.30;;;;;;;;;;5064279;28;20403;-61
2023/09/04 08:38:04;;;;;;;5.88;5.38;;;;;;;;;;5049592;28;20025;-60
2023/09/04 08:40:29;;;;;;;6.07;5.57;;;;;;;;;;5049292;28;20096;-60
2023/09/04 08:42:55;;;;;;;4.70;4.10;;;;;;;;;;5070013;28;20095;-61
2023/09/04 08:45:20;;;;;;;6.43;4.67;;;;;;;;;;5067624;28;20036;-60
2023/09/04 08:47:46;;;;;;;6.30;4.00;;;;;;;;;;5050128;28;20471;-61
2023/09/04 08:50:11;;;;;;;7.07;4.55;;;;;;;;;;5048937;28;20361;-60
2023/09/04 08:52:37;;;;;;;7.97;5.13;;;;;;;;;;5067679;28;20380;-60
2023/09/04 08:55:03;;;;;;;5.50;5.00;;;;;;;;;;5068591;28;20455;-61
2023/09/04 08:57:29;;;;;;;7.38;5.85;;;;;;;;;;5050001;28;20036;-61
2023/09/04 08:59:54;;;;;;;6.80;6.03;;;;;;;;;;5049660;28;20539;-60
2023/09/04 09:02:19;;;;;;;7.70;4.50;;;;;;;;;;5065455;28;20178;-60
2023/09/04 09:04:45;;;;;;;8.57;4.85;;;;;;;;;;5069884;28;20575;-60
2023/09/04 09:07:10;;;;;;;5.57;4.55;;;;;;;;;;5052430;28;20041;-60
2023/09/04 09:09:37;;;;;;;5.38;4.82;;;;;;;;;;5049748;28;20021;-60
2023/09/04 09:12:03;;;;;;;8.80;5.13;;;;;;;;;;5063523;28;20032;-60
2023/09/04 09:14:28;;;;;;;13.07;5.47;;;;;;;;;;5069259;28;20044;-60
2023/09/04 09:17:07;;;;;;;4.65;4.00;;;;;;;;;;5055085;28;20037;-60
2023/09/04 09:19:33;;;;;;;7.35;5.10;;;;;;;;;;5049783;28;20025;-60
2023/09/04 09:22:14;;;;;;;5.93;5.32;;;;;;;;;;5062155;28;20041;-61
2023/09/04 09:24:52;;;;;;;6.45;4.70;;;;;;;;;;5069790;28;20024;-60
2023/09/04 09:27:19;;;;;;;5.38;4.72;;;;;;;;;;5051348;28;20067;-60
2023/09/04 09:29:44;;;;;;;5.07;4.53;;;;;;;;;;5046826;28;20132;-61
2023/09/04 09:32:10;;;;;;;9.02;5.85;;;;;;;;;;5047826;28;20502;-61
2023/09/04 09:34:35;;;;;;;4.65;4.25;;;;;;;;;;5049379;28;20021;-60
2023/09/04 09:37:00;;;;;;;8.55;5.70;;;;;;;;;;5047853;28;20033;-61
2023/09/04 09:39:26;;;;;;;4.95;4.47;;;;;;;;;;5048381;28;20060;-60
2023/09/04 09:41:51;;;;;;;6.78;3.58;;;;;;;;;;5047147;28;20044;-61
2023/09/04 09:44:16;;;;;;;6.40;3.90;;;;;;;;;;5049622;28;20021;-61
2023/09/04 09:46:42;;;;;;;6.03;5.15;;;;;;;;;;5051583;28;20094;-61
2023/09/04 09:49:07;;;;;;;10.00;4.00;;;;;;;;;;5053153;28;20112;-61
2023/09/04 09:51:32;;;;;;;7.20;4.38;;;;;;;;;;5051161;28;20052;-60
2023/09/04 09:53:58;;;;;;;4.70;4.30;;;;;;;;;;5053369;28;20017;-61
2023/09/04 09:56:23;;;;;;;5.20;4.03;;;;;;;;;;5050140;28;20128;-61
2023/09/04 09:58:49;;;;;;;5.77;4.50;;;;;;;;;;5052781;28;20434;-59
2023/09/04 10:01:15;;;;;;;7.45;5.43;;;;;;;;;;5051718;28;20044;-61
2023/09/04 10:03:40;;;;;;;6.30;4.18;;;;;;;;;;5052683;28;20020;-60
2023/09/04 10:06:08;;;;;;;8.90;4.20;;;;;;;;;;5051175;28;20032;-60
2023/09/04 10:08:33;;;;;;;;;;;;;;;;;;5053577;28;20013;-60
2023/09/04 10:11:00;;;;;;;5.82;4.40;;;;;;;;;;5051483;28;19932;-60
2023/09/04 10:13:26;;;;;;;7.10;3.90;;;;;;;;;;5052504;28;20029;-61
2023/09/04 10:15:52;;;;;;;5.82;4.10;;;;;;;;;;5046950;28;20102;-61
2023/09/04 10:18:29;;;;;;;4.15;3.75;;;;;;;;;;5051649;28;20028;-61
2023/09/04 10:20:55;;;;;;;7.13;4.25;;;;;;;;;;5057675;28;20040;-60
2023/09/04 10:23:22;;;;;;;6.55;4.10;;;;;;;;;;5069901;28;20088;-60
2023/09/04 10:25:57;;;;;;;5.45;4.55;;;;;;;;;;5069829;28;20483;-60
2023/09/04 10:28:33;;;;;;;8.38;4.15;;;;;;;;;;5070819;28;20020;-60
2023/09/04 10:30:59;;;;;;;4.43;4.03;;;;;;;;;;5070815;28;20513;-60
2023/09/04 10:33:25;;;;;;;4.63;3.08;;;;;;;;;;5071610;28;20092;-60
2023/09/04 10:35:50;;;;;;;5.72;4.10;;;;;;;;;;5069696;28;20443;-60
2023/09/04 10:38:15;;;;;;;4.70;4.30;;;;;;;;;;5071841;28;20070;-61
2023/09/04 10:40:41;;;;;;;8.43;3.92;;;;;;;;;;5070386;28;20112;-60
2023/09/04 10:43:08;;;;;;;4.35;3.72;;;;;;;;;;5071525;28;20013;-61
2023/09/04 10:45:33;;;;;;;12.68;4.28;;;;;;;;;;5070448;28;20103;-60
2023/09/04 10:48:01;;;;;;;5.33;3.63;;;;;;;;;;5071972;28;20547;-61
2023/09/04 10:50:30;;;;;;;4.83;3.97;;;;;;;;;;5069616;28;20090;-61
2023/09/04 10:52:56;;;;;;;6.05;3.03;;;;;;;;;;5071864;28;20941;-60
2023/09/04 10:55:21;;;;;;;4.25;3.53;;;;;;;;;;5069665;28;20019;-60
2023/09/04 10:58:00;;;;;;;4.88;3.75;;;;;;;;;;5071176;28;20422;-60
2023/09/04 11:00:29;;;;;;;3.83;3.13;;;;;;;;;;5070289;28;20025;-60
2023/09/04 11:02:55;;;;;;;6.00;3.67;;;;;;;;;;5071552;28;20020;-61
2023/09/04 11:05:20;;;;;;;4.65;3.85;;;;;;;;;;5070148;28;20074;-60
2023/09/04 11:07:45;;;;;;;3.40;3.05;;;;;;;;;;5071255;28;20035;-61
2023/09/04 11:10:10;;;;;;;4.73;3.93;;;;;;;;;;5071352;28;20069;-61
2023/09/04 11:12:36;;;;;;;3.63;3.28;;;;;;;;;;5069388;28;20052;-60
2023/09/04 11:15:09;;;;;;;4.82;2.92;;;;;;;;;;5071469;28;20065;-60
2023/09/04 11:17:34;;;;;;;3.03;2.72;;;;;;;;;;5069522;28;20063;-60
2023/09/04 11:19:59;;;;;;;3.43;2.63;;;;;;;;;;5070987;28;20052;-60
2023/09/04 11:22:25;;;;;;;8.38;4.30;;;;;;;;;;5069462;28;20412;-61
2023/09/04 11:24:53;;;;;;;5.68;2.92;;;;;;;;;;5071360;28;20324;-61
2023/09/04 11:27:18;;;;;;;;;;;;;;;;;;5070069;28;20484;-61
2023/09/04 11:29:43;;;;;;;4.47;2.85;;;;;;;;;;5070670;28;20386;-60
2023/09/04 11:32:08;;;;;;;4.38;3.30;;;;;;;;;;5069586;28;20062;-60
2023/09/04 11:34:33;;;;;;;3.57;2.87;;;;;;;;;;5070535;28;20036;-60
2023/09/04 11:36:58;;;;;;;3.60;3.30;;;;;;;;;;5069463;28;20129;-60
2023/09/04 11:39:24;;;;;;;4.00;2.35;;;;;;;;;;5070250;28;20059;-60
2023/09/04 11:41:52;;;;;;;7.05;2.40;;;;;;;;;;5068690;28;20056;-61
2023/09/04 11:44:17;;;;;;;4.50;2.67;;;;;;;;;;5070698;28;20602;-61
2023/09/04 11:46:42;;;;;;;6.67;3.30;;;;;;;;;;5068854;28;20048;-60
2023/09/04 11:49:08;;;;;;;3.03;2.72;;;;;;;;;;5070040;28;20047;-60
2023/09/04 11:51:35;;;;;;;3.05;2.67;;;;;;;;;;5061235;28;20044;-60
2023/09/04 11:54:03;;;;;;;3.45;2.33;;;;;;;;;;5069381;28;20027;-61
2023/09/04 11:56:28;;;;;;;;;;;;;;;;;;5054618;28;20084;-61
2023/09/04 11:58:53;;;;;;;5.10;3.20;;;;;;;;;;5029143;28;19905;-61
2023/09/04 12:01:18;;;;;;;4.53;3.30;;;;;;;;;;5054752;28;20028;-61
2023/09/04 12:03:43;;;;;;;4.47;2.50;;;;;;;;;;5068130;28;20020;-60
2023/09/04 12:06:11;;;;;;;3.53;2.50;;;;;;;;;;5067573;28;20040;-60
2023/09/04 12:08:36;;;;;;;10.80;3.53;;;;;;;;;;5068587;28;20510;-60
2023/09/04 12:11:02;;;;;;;2.90;2.47;;;;;;;;;;5067752;28;20032;-60
2023/09/04 12:13:27;;;;;;;3.00;2.70;;;;;;;;;;5069253;28;20012;-60
2023/09/04 12:15:52;;;;;;;6.00;3.13;;;;;;;;;;5068929;28;20480;-60
2023/09/04 12:18:17;;;;;;;3.47;2.63;;;;;;;;;;5070194;28;20462;-60
2023/09/04 12:20:43;;;;;;;3.88;3.13;;;;;;;;;;5067329;28;20039;-60
2023/09/04 12:23:09;;;;;;;3.83;2.15;;;;;;;;;;5070342;28;20434;-60
2023/09/04 12:25:38;;;;;;;4.95;3.03;;;;;;;;;;5068411;28;20039;-60
2023/09/04 12:28:07;;;;;;;2.65;2.45;;;;;;;;;;5070076;28;20032;-61
2023/09/04 12:30:36;;;;;;;4.28;2.67;;;;;;;;;;5068270;28;20021;-60
2023/09/04 12:33:03;;;;;;;2.63;2.20;;;;;;;;;;5069874;28;20487;-60
2023/09/04 12:35:29;;;;;;;7.05;2.60;;;;;;;;;;5070039;28;20016;-60
2023/09/04 12:37:54;;;;;;;8.70;3.08;;;;;;;;;;5068269;28;20037;-61
2023/09/04 12:40:21;;;;;;;5.22;2.55;;;;;;;;;;5069855;28;20098;-60
2023/09/04 12:42:46;;;;;;;5.15;2.88;;;;;;;;;;5068059;28;20549;-60
2023/09/04 12:45:11;;;;;;;6.33;2.53;;;;;;;;;;5070068;28;20016;-60
2023/09/04 12:47:36;;;;;;;7.80;2.50;;;;;;;;;;5067867;28;20234;-61
2023/09/04 12:50:02;;;;;;;3.47;2.67;;;;;;;;;;5069979;28;20150;-60
2023/09/04 12:52:29;;;;;;;3.47;2.38;;;;;;;;;;5068148;28;20116;-60
2023/09/04 12:54:54;;;;;;;2.38;2.00;;;;;;;;;;5069609;28;20020;-60
2023/09/04 12:57:19;;;;;;;2.87;2.57;;;;;;;;;;5068748;28;20098;-60
2023/09/04 12:59:44;;;;;;;2.67;2.47;;;;;;;;;;5066482;28;20024;-60
2023/09/04 13:02:10;;;;;;;2.70;2.50;;;;;;;;;;5066632;28;20159;-60
2023/09/04 13:04:35;;;;;;;4.32;1.98;;;;;;;;;;5069205;28;20017;-60
2023/09/04 13:07:00;;;;;;;4.80;2.67;;;;;;;;;;5068324;28;20033;-61
2023/09/04 13:09:26;;;;;;;5.93;2.83;;;;;;;;;;5068060;28;20056;-62
2023/09/04 13:11:52;;;;;;;4.05;1.95;;;;;;;;;;5066362;28;20475;-61
2023/09/04 13:14:17;;;;;;;3.43;2.20;;;;;;;;;;5069644;28;20024;-60
2023/09/04 13:16:42;;;;;;;3.67;2.33;;;;;;;;;;5067649;28;20442;-60
2023/09/04 13:19:07;;;;;;;3.17;2.43;;;;;;;;;;5070890;28;20024;-61
2023/09/04 13:21:32;;;;;;;4.13;3.03;;;;;;;;;;5071624;28;20091;-61
2023/09/04 13:23:58;;;;;;;7.10;3.43;;;;;;;;;;5073277;28;20937;-62
2023/09/04 13:26:23;;;;;;;3.88;2.70;;;;;;;;;;5071260;28;20044;-61
2023/09/04 13:28:48;;;;;;;2.67;2.05;;;;;;;;;;5056305;28;20013;-60
2023/09/04 13:31:16;;;;;;;2.55;2.35;;;;;;;;;;5051416;28;20514;-60
2023/09/04 13:33:41;;;;;;;3.83;2.28;;;;;;;;;;5052754;28;20096;-60
2023/09/04 13:36:06;;;;;;;4.40;2.90;;;;;;;;;;5058652;28;20107;-61
2023/09/04 13:38:31;;;;;;;2.97;2.50;;;;;;;;;;5072628;28;20395;-61
2023/09/04 13:40:56;;;;;;;2.97;1.83;;;;;;;;;;5071442;28;20036;-61
2023/09/04 13:43:21;;;;;;;3.23;2.03;;;;;;;;;;5072960;28;20052;-61
2023/09/04 13:45:47;;;;;;;2.90;2.63;;;;;;;;;;5070082;28;20044;-60
2023/09/04 13:48:12;;;;;;;3.03;2.70;;;;;;;;;;5072770;28;20411;-60
2023/09/04 13:50:37;;;;;;;3.00;2.20;;;;;;;;;;5071102;28;20032;-60
2023/09/04 13:53:03;;;;;;;3.90;2.47;;;;;;;;;;5072865;28;20024;-60
2023/09/04 13:55:28;;;;;;;2.40;1.80;;;;;;;;;;5070999;28;20052;-61
2023/09/04 13:57:54;;;;;;;3.28;2.63;;;;;;;;;;5073090;28;20056;-60
2023/09/04 14:00:20;;;;;;;2.30;1.70;;;;;;;;;;5071327;28;20017;-60
2023/09/04 14:02:45;;;;;;;3.90;2.60;;;;;;;;;;5072153;28;20024;-60
2023/09/04 14:05:13;;;;;;;4.27;2.50;;;;;;;;;;5071347;28;20020;-61
2023/09/04 14:07:38;;;;;;;;;;;;;;;;;;5070016;28;20036;-60
2023/09/04 14:10:04;;;;;;;3.15;2.28;;;;;;;;;;5071302;28;19909;-60
2023/09/04 14:12:29;;;;;;;2.30;2.10;;;;;;;;;;5070289;28;20385;-61
2023/09/04 14:14:56;;;;;;;5.17;2.57;;;;;;;;;;5071982;28;20138;-60
2023/09/04 14:17:21;;;;;;;5.00;2.40;;;;;;;;;;5054780;28;20494;-60
2023/09/04 14:19:46;;;;;;;5.32;3.13;;;;;;;;;;5051999;28;20379;-61
2023/09/04 14:22:11;;;;;;;14.83;2.90;;;;;;;;;;5066687;28;20064;-60